createdAt,value
2023-09-24T00:03:45.856Z,86.31
2023-09-24T00:08:49.364Z,86.50
2023-09-24T00:13:51.575Z,86.53
2023-09-24T00:18:53.641Z,86.95
2023-09-24T00:23:55.784Z,87.27
2023-09-24T00:28:58.045Z,87.47
2023-09-24T00:33:59.819Z,87.36
2023-09-24T00:39:02.555Z,87.26
2023-09-24T00:44:05.185Z,87.16
2023-09-24T00:49:08.103Z,87.51
2023-09-24T00:54:11.954Z,87.45
2023-09-24T00:59:14.205Z,87.22
2023-09-24T01:04:16.627Z,87.37
2023-09-24T01:09:20.661Z,87.31
2023-09-24T01:14:23.147Z,87.39
2023-09-24T01:19:25.163Z,87.61
2023-09-24T01:24:28.628Z,87.39
2023-09-24T01:29:30.675Z,87.62
2023-09-24T01:34:32.648Z,87.65
2023-09-24T01:39:34.679Z,87.42
2023-09-24T01:44:36.489Z,87.45
2023-09-24T01:49:38.314Z,87.52
2023-09-24T01:54:40.257Z,87.73
2023-09-24T01:59:42.035Z,87.69
2023-09-24T02:04:43.999Z,87.04
2023-09-24T02:09:46.102Z,86.82
2023-09-24T02:14:49.389Z,86.62
2023-09-24T02:19:55.473Z,86.58
2023-09-24T02:24:57.759Z,86.27
2023-09-24T02:30:00.312Z,86.40
2023-09-24T02:35:02.365Z,85.99
2023-09-24T02:40:06.911Z,85.94
2023-09-24T02:45:10.431Z,85.99
2023-09-24T02:50:14.987Z,86.10
2023-09-24T02:55:19.144Z,85.97
2023-09-24T03:00:28.843Z,85.84
2023-09-24T03:05:31.157Z,86.03
2023-09-24T03:10:36.232Z,86.05
2023-09-24T03:15:38.421Z,86.23
2023-09-24T03:20:40.604Z,86.08
2023-09-24T03:25:42.610Z,85.93
2023-09-24T03:30:44.610Z,86.21
2023-09-24T03:35:48.748Z,86.18
2023-09-24T03:40:50.659Z,86.28
2023-09-24T03:45:53.164Z,86.24
2023-09-24T03:50:55.293Z,86.42
2023-09-24T03:55:57.760Z,86.51
2023-09-24T04:01:08.630Z,86.43
2023-09-24T04:06:12.320Z,86.25
2023-09-24T04:11:14.942Z,85.88
2023-09-24T04:16:16.851Z,85.94
2023-09-24T04:21:19.518Z,85.95
2023-09-24T04:26:23.079Z,85.88
2023-09-24T04:31:25.176Z,85.97
2023-09-24T04:36:27.046Z,85.76
2023-09-24T04:41:28.845Z,85.85
2023-09-24T04:46:30.830Z,86.33
2023-09-24T04:51:35.940Z,86.29
2023-09-24T04:56:37.894Z,86.20
2023-09-24T05:01:39.747Z,86.40
2023-09-24T05:06:41.525Z,86.48
2023-09-24T05:11:43.358Z,86.26
2023-09-24T05:16:45.201Z,86.12
2023-09-24T05:21:48.023Z,85.95
2023-09-24T05:26:49.867Z,85.66
2023-09-24T05:31:52.011Z,85.74
2023-09-24T05:36:53.806Z,85.34
2023-09-24T05:41:57.331Z,85.28
2023-09-24T05:47:00.689Z,84.87
2023-09-24T05:52:02.494Z,84.54
2023-09-24T05:57:05.234Z,84.07
2023-09-24T06:02:07.429Z,83.70
2023-09-24T06:07:09.279Z,83.44
2023-09-24T06:12:11.242Z,83.12
2023-09-24T06:17:13.399Z,82.88
2023-09-24T06:22:15.569Z,81.94
2023-09-24T06:27:18.281Z,81.75
2023-09-24T06:32:20.138Z,81.07
2023-09-24T06:37:22.090Z,80.26
2023-09-24T06:42:23.857Z,80.20
2023-09-24T06:47:25.645Z,80.25
2023-09-24T06:52:31.798Z,80.38
2023-09-24T06:57:33.684Z,80.17
2023-09-24T07:02:36.067Z,79.68
2023-09-24T07:07:39.057Z,79.20
2023-09-24T07:12:42.147Z,79.01
2023-09-24T07:17:44.530Z,78.66
2023-09-24T07:22:47.555Z,77.49
2023-09-24T07:27:49.306Z,77.16
2023-09-24T07:32:51.582Z,76.05
2023-09-24T07:37:53.733Z,75.99
2023-09-24T07:42:55.638Z,75.33
2023-09-24T07:47:57.467Z,75.45
2023-09-24T07:52:59.543Z,74.84
2023-09-24T07:58:01.299Z,73.32
2023-09-24T08:03:03.572Z,72.34
2023-09-24T08:08:05.706Z,71.96
2023-09-24T08:13:07.542Z,70.77
2023-09-24T08:18:10.857Z,70.27
2023-09-24T08:23:14.192Z,70.14
2023-09-24T08:28:15.998Z,68.79
2023-09-24T08:33:18.242Z,68.24
2023-09-24T08:38:20.169Z,67.28
2023-09-24T08:43:27.925Z,68.55
2023-09-24T08:48:30.698Z,68.43
2023-09-24T08:53:34.696Z,66.95
2023-09-24T08:58:36.757Z,65.78
2023-09-24T09:03:38.774Z,65.33
2023-09-24T09:08:54.724Z,64.50
2023-09-24T09:13:57.452Z,65.14
2023-09-24T09:19:01.542Z,64.86
2023-09-24T09:24:04.647Z,64.18
2023-09-24T09:29:06.491Z,63.86
2023-09-24T09:34:08.429Z,64.09
2023-09-24T09:39:10.679Z,63.63
2023-09-24T09:44:15.256Z,64.41
2023-09-24T09:49:21.746Z,64.14
2023-09-24T09:54:25.794Z,63.93
2023-09-24T09:59:29.006Z,63.40
2023-09-24T10:04:32.415Z,63.46
2023-09-24T10:09:36.165Z,62.59
2023-09-24T10:14:44.402Z,62.62
2023-09-24T10:19:58.328Z,62.58
2023-09-24T10:25:22.442Z,62.35
2023-09-24T10:30:24.338Z,61.59
2023-09-24T10:35:26.483Z,61.93
2023-09-24T10:40:39.086Z,61.71
2023-09-24T10:45:41.532Z,61.55
2023-09-24T10:50:45.797Z,62.38
2023-09-24T10:56:01.440Z,62.58
2023-09-24T11:01:10.319Z,61.76
2023-09-24T11:06:12.358Z,60.84
2023-09-24T11:11:15.047Z,60.50
2023-09-24T11:16:17.203Z,61.18
2023-09-24T11:21:19.146Z,59.79
2023-09-24T11:26:29.223Z,59.98
2023-09-24T11:31:31.009Z,59.07
2023-09-24T11:36:33.023Z,58.93
2023-09-24T11:41:36.289Z,58.73
2023-09-24T11:46:40.126Z,58.63
2023-09-24T11:51:42.039Z,59.52
2023-09-24T11:56:43.842Z,58.30
2023-09-24T12:01:45.750Z,58.69
2023-09-24T12:06:47.530Z,57.71
2023-09-24T12:11:49.345Z,58.28
2023-09-24T12:16:55.337Z,58.59
2023-09-24T12:21:57.109Z,58.17
2023-09-24T12:26:58.873Z,57.49
2023-09-24T12:32:00.824Z,57.28
2023-09-24T12:37:02.580Z,57.23
2023-09-24T12:42:04.518Z,56.33
2023-09-24T12:47:06.796Z,56.25
2023-09-24T12:52:10.431Z,56.57
2023-09-24T12:57:12.403Z,56.77
2023-09-24T13:02:15.519Z,55.99
2023-09-24T13:07:17.284Z,56.35
2023-09-24T13:12:19.142Z,56.05
2023-09-24T13:17:21.113Z,56.02
2023-09-24T13:22:23.254Z,55.89
2023-09-24T13:27:25.418Z,56.00
2023-09-24T13:32:27.508Z,57.24
2023-09-24T13:37:30.104Z,56.89
2023-09-24T13:42:32.637Z,56.52
2023-09-24T13:47:34.577Z,57.14
2023-09-24T13:52:36.683Z,55.99
2023-09-24T13:57:38.842Z,56.39
2023-09-24T14:02:42.762Z,57.00
2023-09-24T14:07:44.728Z,57.57
2023-09-24T14:12:47.219Z,57.12
2023-09-24T14:18:02.612Z,57.08
2023-09-24T14:23:04.850Z,55.99
2023-09-24T14:28:07.405Z,55.74
2023-09-24T14:33:09.334Z,56.90
2023-09-24T14:38:11.379Z,57.45
2023-09-24T14:43:13.133Z,58.15
2023-09-24T14:48:14.999Z,57.84
2023-09-24T14:53:16.995Z,58.59
2023-09-24T14:58:20.240Z,58.99
2023-09-24T15:03:22.460Z,59.85
2023-09-24T15:08:26.260Z,60.05
2023-09-24T15:13:28.851Z,60.32
2023-09-24T15:18:31.317Z,61.00
2023-09-24T15:23:33.372Z,60.81
2023-09-24T15:28:35.349Z,60.73
2023-09-24T15:33:37.336Z,60.71
2023-09-24T15:38:39.446Z,60.91
2023-09-24T15:43:41.352Z,60.91
2023-09-24T15:48:44.424Z,60.78
2023-09-24T15:53:46.601Z,60.38
2023-09-24T15:58:48.651Z,60.68
2023-09-24T16:03:50.884Z,60.98
2023-09-24T16:08:53.539Z,61.58
2023-09-24T16:13:55.381Z,62.19
2023-09-24T16:18:57.301Z,62.48
2023-09-24T16:23:59.193Z,63.07
2023-09-24T16:29:01.826Z,63.30
2023-09-24T16:34:03.824Z,63.91
2023-09-24T16:39:08.668Z,64.32
2023-09-24T16:44:10.558Z,64.84
2023-09-24T16:49:13.314Z,65.54
2023-09-24T16:54:15.281Z,65.95
2023-09-24T16:59:17.709Z,66.56
2023-09-24T17:04:20.329Z,66.82
2023-09-24T17:09:24.255Z,67.20
2023-09-24T17:14:26.178Z,67.38
2023-09-24T17:19:28.193Z,67.67
2023-09-24T17:24:33.252Z,67.81
2023-09-24T17:29:35.136Z,68.05
2023-09-24T17:34:37.008Z,68.37
2023-09-24T17:39:39.098Z,68.64
2023-09-24T17:44:40.973Z,68.91
2023-09-24T17:49:42.869Z,69.19
2023-09-24T17:54:44.864Z,69.40
2023-09-24T17:59:46.957Z,69.45
2023-09-24T18:04:48.902Z,69.79
2023-09-24T18:09:50.988Z,70.05
2023-09-24T18:14:52.928Z,70.26
2023-09-24T18:19:54.769Z,70.29
2023-09-24T18:24:56.544Z,70.63
2023-09-24T18:29:58.287Z,70.82
2023-09-24T18:35:00.283Z,71.00
2023-09-24T18:40:04.905Z,71.35
2023-09-24T18:45:08.136Z,71.44
2023-09-24T18:50:10.229Z,71.43
2023-09-24T18:55:11.985Z,71.60
2023-09-24T19:00:15.326Z,72.07
2023-09-24T19:05:17.701Z,72.17
2023-09-24T19:10:19.630Z,72.11
2023-09-24T19:15:21.779Z,72.26
2023-09-24T19:20:23.650Z,72.41
2023-09-24T19:25:27.423Z,72.44
2023-09-24T19:30:30.125Z,72.64
2023-09-24T19:35:32.077Z,72.62
2023-09-24T19:40:33.857Z,72.84
2023-09-24T19:45:36.282Z,73.01
2023-09-24T19:50:38.819Z,73.07
2023-09-24T19:55:54.460Z,73.08
2023-09-24T20:00:59.921Z,73.04
2023-09-24T20:06:07.265Z,73.25
2023-09-24T20:11:10.011Z,73.21
2023-09-24T20:16:12.121Z,73.17
2023-09-24T20:21:14.085Z,73.15
2023-09-24T20:26:16.224Z,73.17
2023-09-24T20:31:18.761Z,73.24
2023-09-24T20:36:21.226Z,73.42
2023-09-24T20:41:23.207Z,73.40
2023-09-24T20:46:27.062Z,73.49
2023-09-24T20:51:29.060Z,73.56
2023-09-24T20:56:31.041Z,73.68
2023-09-24T21:01:32.865Z,73.79
2023-09-24T21:06:34.795Z,74.07
2023-09-24T21:11:41.468Z,74.37
2023-09-24T21:16:45.566Z,74.50
2023-09-24T21:21:47.532Z,74.69
2023-09-24T21:26:49.298Z,74.84
2023-09-24T21:31:55.708Z,75.03
2023-09-24T21:36:57.709Z,75.34
2023-09-24T21:41:59.550Z,75.43
2023-09-24T21:47:01.679Z,75.69
2023-09-24T21:52:03.568Z,75.79
2023-09-24T21:57:05.313Z,75.76
2023-09-24T22:02:07.727Z,75.84
2023-09-24T22:07:10.047Z,75.81
2023-09-24T22:12:12.136Z,75.69
2023-09-24T22:17:13.974Z,75.64
2023-09-24T22:22:15.838Z,75.77
2023-09-24T22:27:17.616Z,75.77
2023-09-24T22:32:19.729Z,75.69
2023-09-24T22:37:21.614Z,75.68
2023-09-24T22:42:23.548Z,76.03
2023-09-24T22:47:25.590Z,76.11
2023-09-24T22:52:27.545Z,76.27
2023-09-24T22:57:29.380Z,76.16
2023-09-24T23:02:31.541Z,76.16
2023-09-24T23:07:34.446Z,76.25
2023-09-24T23:12:43.459Z,76.50
2023-09-24T23:17:45.454Z,76.62
2023-09-24T23:22:47.399Z,76.77
2023-09-24T23:27:49.330Z,76.84
2023-09-24T23:32:51.294Z,76.92
2023-09-24T23:37:53.410Z,77.13
2023-09-24T23:42:59.661Z,77.29
2023-09-24T23:48:03.107Z,77.46
2023-09-24T23:53:09.566Z,77.51
2023-09-24T23:58:11.890Z,77.58
